This is the latest recevied weather packets stored in our database for station/object EA2BJM-15. If no packets are shown the sender has not sent any weather packets the latest 10 day(s).
| Time | Temp. | Humidity | Pressure | Rain* | Wind** | Luminosity | Snow |
|---|---|---|---|---|---|---|---|
| 1787732156 | 27.22° C | 39% | 1011.8 hPa | 0 mm | - | - | - |
| 1787731256 | 26.67° C | 41% | 1011.8 hPa | 0 mm | - | - | - |
| 1787730356 | 27.78° C | 38% | 1010.8 hPa | 0 mm | - | - | - |
| 1787729456 | 26.67° C | 40% | 1011.8 hPa | 0 mm | - | - | - |
| 1787728556 | 26.11° C | 38% | 1010.8 hPa | 0 mm | - | - | - |
| 1787727656 | 26.11° C | 38% | 1010.8 hPa | 0 mm | - | - | - |
| 1787726755 | 24.44° C | 42% | 1011.8 hPa | 0 mm | - | - | - |
| 1787725855 | 23.33° C | 44% | 1011.8 hPa | 0 mm | - | - | - |
| 1787724955 | 23.33° C | 45% | 1011.8 hPa | 0 mm | - | - | - |
| 1787724055 | 22.78° C | 46% | 1011.8 hPa | 0 mm | - | - | - |
| 1787723155 | 22.78° C | 47% | 1011.8 hPa | 0 mm | - | - | - |
| 1787722255 | 22.78° C | 47% | 1011.8 hPa | 0 mm | - | - | - |
| 1787721355 | 22.78° C | 46% | 1011.8 hPa | 0 mm | - | - | - |
| 1787720455 | 22.78° C | 45% | 1011.8 hPa | 0 mm | - | - | - |
| 1787719555 | 22.78° C | 44% | 1011.8 hPa | 0 mm | - | - | - |
| 1787718655 | 23.33° C | 43% | 1011.8 hPa | 0 mm | - | - | - |
| 1787717757 | 23.33° C | 42% | 1011.8 hPa | 0 mm | - | - | - |
| 1787716856 | 23.33° C | 40% | 1011.8 hPa | 0 mm | - | - | - |
| 1787715956 | 23.33° C | 37% | 1011.8 hPa | 0 mm | - | - | - |
| 1787715056 | 23.33° C | 35% | 1012.8 hPa | 0 mm | - | - | - |
| 1787714156 | 23.33° C | 34% | 1012.8 hPa | 0 mm | - | - | - |
| 1787713256 | 23.33° C | 33% | 1012.8 hPa | 0 mm | - | - | - |
| 1787712356 | 23.89° C | 33% | 1012.8 hPa | 0 mm | - | - | - |
| 1787711456 | 23.89° C | 33% | 1012.8 hPa | 0 mm | - | - | - |
| 1787710556 | 24.44° C | 33% | 1012.8 hPa | 0 mm | - | - | - |
* Rain latest hour (hover to see other rain measurements)
** Current wind speed in m/s (hover to see current wind gust speed)